Map

Track Data

SID SEASON NUMBER BASIN SUBBASIN NAME ISO_TIME NATURE LAT LON WMO_WIND WMO_PRES WMO_AGENCY TRACK_TYPE DIST2LAND LANDFALL IFLAG USA_AGENCY USA_ATCF_ID USA_LAT USA_LON USA_RECORD USA_STATUS USA_WIND USA_PRES USA_SSHS USA_R34_NE USA_R34_SE USA_R34_SW USA_R34_NW USA_R50_NE USA_R50_SE USA_R50_SW USA_R50_NW USA_R64_NE USA_R64_SE USA_R64_SW USA_R64_NW USA_POCI USA_ROCI USA_RMW USA_EYE TOKYO_LAT TOKYO_LON TOKYO_GRADE TOKYO_WIND TOKYO_PRES TOKYO_R50_DIR TOKYO_R50_LONG TOKYO_R50_SHORT TOKYO_R30_DIR TOKYO_R30_LONG TOKYO_R30_SHORT TOKYO_LAND CMA_LAT CMA_LON CMA_CAT CMA_WIND CMA_PRES HKO_LAT HKO_LON HKO_CAT HKO_WIND HKO_PRES NEWDELHI_LAT NEWDELHI_LON NEWDELHI_GRADE NEWDELHI_WIND NEWDELHI_PRES NEWDELHI_CI NEWDELHI_DP NEWDELHI_POCI REUNION_LAT REUNION_LON REUNION_TYPE REUNION_WIND REUNION_PRES REUNION_TNUM REUNION_CI REUNION_RMW REUNION_R34_NE REUNION_R34_SE REUNION_R34_SW REUNION_R34_NW REUNION_R50_NE REUNION_R50_SE REUNION_R50_SW REUNION_R50_NW REUNION_R64_NE REUNION_R64_SE REUNION_R64_SW REUNION_R64_NW BOM_LAT BOM_LON BOM_TYPE BOM_WIND BOM_PRES BOM_TNUM BOM_CI BOM_RMW BOM_R34_NE BOM_R34_SE BOM_R34_SW BOM_R34_NW BOM_R50_NE BOM_R50_SE BOM_R50_SW BOM_R50_NW BOM_R64_NE BOM_R64_SE BOM_R64_SW BOM_R64_NW BOM_ROCI BOM_POCI BOM_EYE BOM_POS_METHOD BOM_PRES_METHOD NADI_LAT NADI_LON NADI_CAT NADI_WIND NADI_PRES WELLINGTON_LAT WELLINGTON_LON WELLINGTON_WIND WELLINGTON_PRES DS824_LAT DS824_LON DS824_STAGE DS824_WIND DS824_PRES TD9636_LAT TD9636_LON TD9636_STAGE TD9636_WIND TD9636_PRES TD9635_LAT TD9635_LON TD9635_WIND TD9635_PRES TD9635_ROCI NEUMANN_LAT NEUMANN_LON NEUMANN_CLASS NEUMANN_WIND NEUMANN_PRES MLC_LAT MLC_LON MLC_CLASS MLC_WIND MLC_PRES USA_GUST BOM_GUST BOM_GUST_PER REUNION_GUST REUNION_GUST_PER USA_SEAHGT USA_SEARAD_NE USA_SEARAD_SE USA_SEARAD_SW USA_SEARAD_NW STORM_SPEED STORM_DIR
1970172N15111 1970 52 WP MM NOT_NAMED 1970-06-20 12:00:00 TS 14.5000 111.200 main 215 215 __O___________ -1 14.5000 111.200 0 17 1007 5 41
1970172N15111 1970 52 WP MM NOT_NAMED 1970-06-20 15:00:00 TS 14.6825 111.362 main 243 243 __P___________ -1 14.6825 111.362 0 17 1007 4 26
1970172N15111 1970 52 WP MM NOT_NAMED 1970-06-20 18:00:00 TS 14.9000 111.400 main 248 238 __O___________ -1 14.9000 111.400 0 17 1007 5 346
1970172N15111 1970 52 WP MM NOT_NAMED 1970-06-20 21:00:00 TS 15.1776 111.238 main 232 218 __P___________ -1 15.1776 111.238 0 17 1006 7 327
1970172N15111 1970 52 WP MM NOT_NAMED 1970-06-21 00:00:00 TS 15.5000 111.000 main 222 214 __O___________ -1 15.5000 111.000 0 17 1006 8 330
1970172N15111 1970 52 WP MM NOT_NAMED 1970-06-21 03:00:00 TS 15.8500 110.828 main 218 212 __P___________ -1 15.8500 110.828 0 18 1005 8 338
1970172N15111 1970 52 WP MM NOT_NAMED 1970-06-21 06:00:00 TS 16.2000 110.700 main 222 212 __O___________ -1 16.2000 110.700 0 19 1005 7 343
1970172N15111 1970 52 WP MM NOT_NAMED 1970-06-21 09:00:00 TS 16.5000 110.627 main 212 183 __P___________ -1 16.5000 110.627 0 19 1005 6 351
1970172N15111 1970 52 WP MM NOT_NAMED 1970-06-21 12:00:00 TS 16.8000 110.600 main 183 155 __O___________ -1 16.8000 110.600 0 19 1005 7 359
1970172N15111 1970 52 WP MM NOT_NAMED 1970-06-21 15:00:00 TS 17.1500 110.600 main 147 119 __P___________ -1 17.1500 110.600 0 19 1005 7 0
1970172N15111 1970 52 WP MM NOT_NAMED 1970-06-21 18:00:00 TS 17.5000 110.600 main 119 92 __O___________ -1 17.5000 110.600 0 19 1005 7 0
1970172N15111 1970 52 WP MM NOT_NAMED 1970-06-21 21:00:00 TS 17.8074 110.587 main 92 61 __P___________ -1 17.8074 110.587 0 21 1004 6 351
1970172N15111 1970 52 WP MM NOT_NAMED 1970-06-22 00:00:00 TS 18.1000 110.500 main 61 23 __O___________ -1 18.1000 110.500 1 23 1004 7 336
1970172N15111 1970 52 WP MM NOT_NAMED 1970-06-22 03:00:00 TS 18.4225 110.295 main 23 0 __P___________ -1 18.4225 110.295 1 23 1003 8 322
1970172N15111 1970 52 WP MM NOT_NAMED 1970-06-22 06:00:00 TS 18.7000 110.000 main 0 0 __O___________ -1 18.7000 110.000 1 23 1002 7 309
1970172N15111 1970 52 WP MM NOT_NAMED 1970-06-22 09:00:00 TS 18.8874 109.680 main 0 0 __P___________ -1 18.8874 109.680 1 23 1002 7 294
1970172N15111 1970 52 WP MM NOT_NAMED 1970-06-22 12:00:00 TS 19.0000 109.300 main 0 0 __O___________ -1 19.0000 109.300 1 23 1002 8 279
1970172N15111 1970 52 WP MM NOT_NAMED 1970-06-22 15:00:00 TS 19.0202 108.820 main 0 0 __P___________ -1 19.0202 108.820 1 23 1002 9 277
1970172N15111 1970 52 WP MM NOT_NAMED 1970-06-22 18:00:00 TS 19.1000 108.400 main 30 30 __O___________ -1 19.1000 108.400 1 23 1003 7 304
1970172N15111 1970 52 WP MM NOT_NAMED 1970-06-22 21:00:00 TS 19.4198 108.190 main 43 43 __P___________ -1 19.4198 108.190 1 23 1003 8 338
1970172N15111 1970 52 WP MM NOT_NAMED 1970-06-23 00:00:00 TS 19.8000 108.100 main 76 76 __O___________ -1 19.8000 108.100 1 23 1003 7 350
1970172N15111 1970 52 WP MM NOT_NAMED 1970-06-23 03:00:00 TS 20.0874 108.065 main 100 100 __P___________ -1 20.0874 108.065 1 23 1003 5 349
1970172N15111 1970 52 WP MM NOT_NAMED 1970-06-23 06:00:00 TS 20.3000 108.000 main 100 78 __O___________ -1 20.3000 108.000 1 23 1003 4 323
1970172N15111 1970 52 WP MM NOT_NAMED 1970-06-23 09:00:00 TS 20.4451 107.780 main 78 54 __P___________ -1 20.4451 107.780 1 23 1003 5 293
1970172N15111 1970 52 WP MM NOT_NAMED 1970-06-23 12:00:00 TS 20.5000 107.500 main 54 45 __O___________ -1 20.5000 107.500 1 23 1003 5 276
1970172N15111 1970 52 WP MM NOT_NAMED 1970-06-23 15:00:00 TS 20.4949 107.265 main 45 38 __P___________ -1 20.4949 107.265 1 23 1003 5 258
1970172N15111 1970 52 WP MM NOT_NAMED 1970-06-23 18:00:00 TS 20.4000 107.000 main 39 15 __O___________ -1 20.4000 107.000 1 23 1003 6 243
1970172N15111 1970 52 WP MM NOT_NAMED 1970-06-23 21:00:00 TS 20.2223 106.695 main 15 10 __P___________ -1 20.2223 106.695 1 23 1003 8 239
1970172N15111 1970 52 WP MM NOT_NAMED 1970-06-24 00:00:00 TS 20.0000 106.300 main 10 0 __O___________ -1 20.0000 106.300 1 23 1004 10 243
1970172N15111 1970 52 WP MM NOT_NAMED 1970-06-24 03:00:00 TS 19.7930 105.785 main 0 0 __P___________ -1 19.7930 105.785 1 20 1005 11 249
1970172N15111 1970 52 WP MM NOT_NAMED 1970-06-24 06:00:00 TS 19.6000 105.200 main 0 __O___________ -1 19.6000 105.200 0 17 1006 12 251

Digital Typhoon Data and Search

About IBTrACS Database

This database is a web-friendly format of International Best Track Archive for Climate Stewardship (IBTrACS), a global best track data archive curated by NOAA dating back to 1842.

Updated: 2021-11-26